sensor_id;sensor_type;location;lat;lon;timestamp;temperature;humidity
4604;DHT22;2314;48.272;11.562;2022-12-29T00:02:14;1.70;99.90
4604;DHT22;2314;48.272;11.562;2022-12-29T00:04:41;1.70;99.90
4604;DHT22;2314;48.272;11.562;2022-12-29T00:07:08;1.90;99.90
4604;DHT22;2314;48.272;11.562;2022-12-29T00:09:35;1.90;99.90
4604;DHT22;2314;48.272;11.562;2022-12-29T00:12:04;2.00;99.90
4604;DHT22;2314;48.272;11.562;2022-12-29T00:14:31;2.10;99.90
4604;DHT22;2314;48.272;11.562;2022-12-29T00:17:16;2.20;99.90
4604;DHT22;2314;48.272;11.562;2022-12-29T00:19:43;2.40;99.90
4604;DHT22;2314;48.272;11.562;2022-12-29T00:22:27;2.50;99.90
4604;DHT22;2314;48.272;11.562;2022-12-29T00:25:13;2.70;99.90
4604;DHT22;2314;48.272;11.562;2022-12-29T00:27:59;3.00;99.90
4604;DHT22;2314;48.272;11.562;2022-12-29T00:30:43;3.30;99.90
4604;DHT22;2314;48.272;11.562;2022-12-29T00:33:29;3.50;99.90
4604;DHT22;2314;48.272;11.562;2022-12-29T00:36:17;3.70;99.90
4604;DHT22;2314;48.272;11.562;2022-12-29T00:38:50;3.80;99.90
4604;DHT22;2314;48.272;11.562;2022-12-29T00:41:36;3.90;99.90
4604;DHT22;2314;48.272;11.562;2022-12-29T00:44:21;4.00;99.90
4604;DHT22;2314;48.272;11.562;2022-12-29T00:46:48;4.10;99.90
4604;DHT22;2314;48.272;11.562;2022-12-29T00:49:15;4.10;99.90
4604;DHT22;2314;48.272;11.562;2022-12-29T00:51:58;4.10;99.90
4604;DHT22;2314;48.272;11.562;2022-12-29T00:54:27;4.00;99.90
4604;DHT22;2314;48.272;11.562;2022-12-29T00:56:54;4.00;99.90
4604;DHT22;2314;48.272;11.562;2022-12-29T00:59:23;4.00;99.90
4604;DHT22;2314;48.272;11.562;2022-12-29T01:01:51;4.10;99.90
4604;DHT22;2314;48.272;11.562;2022-12-29T01:04:20;4.20;99.90
4604;DHT22;2314;48.272;11.562;2022-12-29T01:06:48;4.10;99.90
4604;DHT22;2314;48.272;11.562;2022-12-29T01:09:15;4.00;99.90
4604;DHT22;2314;48.272;11.562;2022-12-29T01:12:01;3.90;99.90
4604;DHT22;2314;48.272;11.562;2022-12-29T01:14:30;3.90;99.90
4604;DHT22;2314;48.272;11.562;2022-12-29T01:16:57;3.80;99.90
4604;DHT22;2314;48.272;11.562;2022-12-29T01:19:25;3.70;99.90
4604;DHT22;2314;48.272;11.562;2022-12-29T01:21:52;3.60;99.90
4604;DHT22;2314;48.272;11.562;2022-12-29T01:24:20;3.50;99.90
4604;DHT22;2314;48.272;11.562;2022-12-29T01:26:47;3.40;99.90
4604;DHT22;2314;48.272;11.562;2022-12-29T01:29:15;3.40;99.90
4604;DHT22;2314;48.272;11.562;2022-12-29T01:31:43;3.40;99.90
4604;DHT22;2314;48.272;11.562;2022-12-29T01:34:11;3.40;99.90
4604;DHT22;2314;48.272;11.562;2022-12-29T01:36:38;3.40;99.90
4604;DHT22;2314;48.272;11.562;2022-12-29T01:39:05;3.50;99.90
4604;DHT22;2314;48.272;11.562;2022-12-29T01:41:32;3.50;99.90
4604;DHT22;2314;48.272;11.562;2022-12-29T01:44:00;3.40;99.90
4604;DHT22;2314;48.272;11.562;2022-12-29T01:46:31;3.50;99.90
4604;DHT22;2314;48.272;11.562;2022-12-29T01:49:05;3.50;99.90
4604;DHT22;2314;48.272;11.562;2022-12-29T01:51:40;3.60;99.90
4604;DHT22;2314;48.272;11.562;2022-12-29T01:54:12;3.50;99.90
4604;DHT22;2314;48.272;11.562;2022-12-29T01:56:41;3.50;99.90
4604;DHT22;2314;48.272;11.562;2022-12-29T01:59:14;3.50;99.90
4604;DHT22;2314;48.272;11.562;2022-12-29T02:01:44;3.50;99.90
4604;DHT22;2314;48.272;11.562;2022-12-29T02:04:12;3.40;99.90
4604;DHT22;2314;48.272;11.562;2022-12-29T02:06:44;3.50;99.90
4604;DHT22;2314;48.272;11.562;2022-12-29T02:09:13;3.60;99.90
4604;DHT22;2314;48.272;11.562;2022-12-29T02:11:40;3.70;99.90
4604;DHT22;2314;48.272;11.562;2022-12-29T02:14:09;3.60;99.90
4604;DHT22;2314;48.272;11.562;2022-12-29T02:16:48;3.70;99.90
4604;DHT22;2314;48.272;11.562;2022-12-29T02:22:44;3.70;99.90
4604;DHT22;2314;48.272;11.562;2022-12-29T02:25:41;3.80;99.90
4604;DHT22;2314;48.272;11.562;2022-12-29T02:28:36;3.90;99.90
4604;DHT22;2314;48.272;11.562;2022-12-29T02:31:20;4.00;99.90
4604;DHT22;2314;48.272;11.562;2022-12-29T02:33:56;4.00;99.90
4604;DHT22;2314;48.272;11.562;2022-12-29T02:36:33;4.00;99.90
4604;DHT22;2314;48.272;11.562;2022-12-29T02:39:11;4.00;99.90
4604;DHT22;2314;48.272;11.562;2022-12-29T02:41:51;4.00;99.90
4604;DHT22;2314;48.272;11.562;2022-12-29T02:44:27;4.00;99.90
4604;DHT22;2314;48.272;11.562;2022-12-29T02:47:04;4.00;99.90
4604;DHT22;2314;48.272;11.562;2022-12-29T02:49:39;4.00;99.90
4604;DHT22;2314;48.272;11.562;2022-12-29T02:52:14;4.10;99.90
4604;DHT22;2314;48.272;11.562;2022-12-29T02:54:43;4.20;99.90
4604;DHT22;2314;48.272;11.562;2022-12-29T02:57:12;4.40;99.90
4604;DHT22;2314;48.272;11.562;2022-12-29T02:59:44;4.60;99.90
4604;DHT22;2314;48.272;11.562;2022-12-29T03:02:31;4.70;99.90
4604;DHT22;2314;48.272;11.562;2022-12-29T03:05:37;4.80;99.90
4604;DHT22;2314;48.272;11.562;2022-12-29T03:08:18;4.80;99.90
4604;DHT22;2314;48.272;11.562;2022-12-29T03:10:54;4.90;99.90
4604;DHT22;2314;48.272;11.562;2022-12-29T03:13:29;5.00;99.90
4604;DHT22;2314;48.272;11.562;2022-12-29T03:16:22;5.10;99.90
4604;DHT22;2314;48.272;11.562;2022-12-29T03:18:56;5.20;99.90
4604;DHT22;2314;48.272;11.562;2022-12-29T03:21:31;5.30;99.90
4604;DHT22;2314;48.272;11.562;2022-12-29T03:24:21;5.50;99.90
4604;DHT22;2314;48.272;11.562;2022-12-29T03:26:50;5.60;99.90
4604;DHT22;2314;48.272;11.562;2022-12-29T03:29:20;5.70;99.90
4604;DHT22;2314;48.272;11.562;2022-12-29T03:31:48;5.80;99.90
4604;DHT22;2314;48.272;11.562;2022-12-29T03:34:20;5.90;99.90
4604;DHT22;2314;48.272;11.562;2022-12-29T03:36:51;6.00;99.90
4604;DHT22;2314;48.272;11.562;2022-12-29T03:39:21;6.00;99.90
4604;DHT22;2314;48.272;11.562;2022-12-29T03:41:52;6.10;99.90
4604;DHT22;2314;48.272;11.562;2022-12-29T03:44:31;6.10;99.90
4604;DHT22;2314;48.272;11.562;2022-12-29T03:46:59;6.20;99.90
4604;DHT22;2314;48.272;11.562;2022-12-29T03:49:28;6.30;99.90
4604;DHT22;2314;48.272;11.562;2022-12-29T03:51:55;6.30;99.90
4604;DHT22;2314;48.272;11.562;2022-12-29T03:54:22;6.40;99.90
4604;DHT22;2314;48.272;11.562;2022-12-29T03:56:49;6.40;99.90
4604;DHT22;2314;48.272;11.562;2022-12-29T03:59:16;6.50;99.90
4604;DHT22;2314;48.272;11.562;2022-12-29T04:01:43;6.50;99.90
4604;DHT22;2314;48.272;11.562;2022-12-29T04:04:10;6.60;99.90
4604;DHT22;2314;48.272;11.562;2022-12-29T04:06:39;6.60;99.90
4604;DHT22;2314;48.272;11.562;2022-12-29T04:09:06;6.60;99.90
4604;DHT22;2314;48.272;11.562;2022-12-29T04:11:33;6.60;99.90
4604;DHT22;2314;48.272;11.562;2022-12-29T04:14:00;6.70;99.90
4604;DHT22;2314;48.272;11.562;2022-12-29T04:16:27;6.70;99.90
4604;DHT22;2314;48.272;11.562;2022-12-29T04:18:54;6.70;99.90
4604;DHT22;2314;48.272;11.562;2022-12-29T04:21:21;6.70;99.90
4604;DHT22;2314;48.272;11.562;2022-12-29T04:23:49;6.70;99.90
4604;DHT22;2314;48.272;11.562;2022-12-29T04:26:16;6.80;99.90
4604;DHT22;2314;48.272;11.562;2022-12-29T04:28:43;6.70;99.90
4604;DHT22;2314;48.272;11.562;2022-12-29T04:31:10;6.80;99.90
4604;DHT22;2314;48.272;11.562;2022-12-29T04:33:37;6.80;99.90
4604;DHT22;2314;48.272;11.562;2022-12-29T04:36:04;6.90;99.90
4604;DHT22;2314;48.272;11.562;2022-12-29T04:38:32;6.90;99.90
4604;DHT22;2314;48.272;11.562;2022-12-29T04:41:01;6.90;99.90
4604;DHT22;2314;48.272;11.562;2022-12-29T04:43:29;6.90;99.90
4604;DHT22;2314;48.272;11.562;2022-12-29T04:45:56;6.90;99.90
4604;DHT22;2314;48.272;11.562;2022-12-29T04:48:23;6.90;99.90
4604;DHT22;2314;48.272;11.562;2022-12-29T04:50:50;7.00;99.90
4604;DHT22;2314;48.272;11.562;2022-12-29T04:53:17;7.00;99.90
4604;DHT22;2314;48.272;11.562;2022-12-29T04:55:48;7.00;99.90
4604;DHT22;2314;48.272;11.562;2022-12-29T04:58:17;7.00;99.90
4604;DHT22;2314;48.272;11.562;2022-12-29T05:00:44;7.00;99.90
4604;DHT22;2314;48.272;11.562;2022-12-29T05:03:11;7.00;99.90
4604;DHT22;2314;48.272;11.562;2022-12-29T05:05:38;7.10;99.90
4604;DHT22;2314;48.272;11.562;2022-12-29T05:08:05;7.10;99.90
4604;DHT22;2314;48.272;11.562;2022-12-29T05:10:32;7.10;99.90
4604;DHT22;2314;48.272;11.562;2022-12-29T05:12:59;7.10;99.90
4604;DHT22;2314;48.272;11.562;2022-12-29T05:15:27;7.10;99.90
4604;DHT22;2314;48.272;11.562;2022-12-29T05:17:54;7.00;99.90
4604;DHT22;2314;48.272;11.562;2022-12-29T05:20:21;7.00;99.90
4604;DHT22;2314;48.272;11.562;2022-12-29T05:22:48;7.00;99.90
4604;DHT22;2314;48.272;11.562;2022-12-29T05:25:15;7.10;99.90
4604;DHT22;2314;48.272;11.562;2022-12-29T05:27:42;7.10;99.90
4604;DHT22;2314;48.272;11.562;2022-12-29T05:30:10;7.10;99.90
4604;DHT22;2314;48.272;11.562;2022-12-29T05:32:39;7.10;99.90
4604;DHT22;2314;48.272;11.562;2022-12-29T05:35:07;7.10;99.90
4604;DHT22;2314;48.272;11.562;2022-12-29T05:37:35;7.20;99.90
4604;DHT22;2314;48.272;11.562;2022-12-29T05:40:02;7.20;99.90
4604;DHT22;2314;48.272;11.562;2022-12-29T05:42:30;7.20;99.90
4604;DHT22;2314;48.272;11.562;2022-12-29T05:44:57;7.20;99.90
4604;DHT22;2314;48.272;11.562;2022-12-29T05:47:24;7.20;99.90
4604;DHT22;2314;48.272;11.562;2022-12-29T05:49:52;7.10;99.90
4604;DHT22;2314;48.272;11.562;2022-12-29T05:52:19;7.20;99.90
4604;DHT22;2314;48.272;11.562;2022-12-29T05:54:46;7.20;99.90
4604;DHT22;2314;48.272;11.562;2022-12-29T05:57:13;7.30;99.90
4604;DHT22;2314;48.272;11.562;2022-12-29T05:59:40;7.30;99.90
4604;DHT22;2314;48.272;11.562;2022-12-29T06:02:07;7.30;99.90
4604;DHT22;2314;48.272;11.562;2022-12-29T06:04:35;7.30;99.90
4604;DHT22;2314;48.272;11.562;2022-12-29T06:07:03;7.40;99.90
4604;DHT22;2314;48.272;11.562;2022-12-29T06:09:30;7.40;99.90
4604;DHT22;2314;48.272;11.562;2022-12-29T06:11:57;7.40;99.90
4604;DHT22;2314;48.272;11.562;2022-12-29T06:14:24;7.50;99.90
4604;DHT22;2314;48.272;11.562;2022-12-29T06:16:51;7.50;99.90
4604;DHT22;2314;48.272;11.562;2022-12-29T06:19:18;7.50;99.90
4604;DHT22;2314;48.272;11.562;2022-12-29T06:21:45;7.60;99.90
4604;DHT22;2314;48.272;11.562;2022-12-29T06:24:13;7.60;99.90
4604;DHT22;2314;48.272;11.562;2022-12-29T06:26:40;7.60;99.90
4604;DHT22;2314;48.272;11.562;2022-12-29T06:29:08;7.60;99.90
4604;DHT22;2314;48.272;11.562;2022-12-29T06:31:35;7.50;99.90
4604;DHT22;2314;48.272;11.562;2022-12-29T06:34:02;7.50;99.90
4604;DHT22;2314;48.272;11.562;2022-12-29T06:36:29;7.40;99.90
4604;DHT22;2314;48.272;11.562;2022-12-29T06:38:56;7.40;99.90
4604;DHT22;2314;48.272;11.562;2022-12-29T06:41:24;7.30;99.90
4604;DHT22;2314;48.272;11.562;2022-12-29T06:43:51;7.30;99.90
4604;DHT22;2314;48.272;11.562;2022-12-29T06:46:18;7.30;99.90
4604;DHT22;2314;48.272;11.562;2022-12-29T06:48:45;7.20;99.90
4604;DHT22;2314;48.272;11.562;2022-12-29T06:51:12;7.10;99.90
4604;DHT22;2314;48.272;11.562;2022-12-29T06:53:39;7.10;99.90
4604;DHT22;2314;48.272;11.562;2022-12-29T06:56:06;7.10;99.90
4604;DHT22;2314;48.272;11.562;2022-12-29T06:58:35;7.20;99.90
4604;DHT22;2314;48.272;11.562;2022-12-29T07:01:02;7.20;99.90
4604;DHT22;2314;48.272;11.562;2022-12-29T07:03:29;7.20;99.90
4604;DHT22;2314;48.272;11.562;2022-12-29T07:05:56;7.10;99.90
4604;DHT22;2314;48.272;11.562;2022-12-29T07:08:24;7.20;99.90
4604;DHT22;2314;48.272;11.562;2022-12-29T07:10:51;7.10;99.90
4604;DHT22;2314;48.272;11.562;2022-12-29T07:13:17;7.10;99.90
4604;DHT22;2314;48.272;11.562;2022-12-29T07:15:46;7.10;99.90
4604;DHT22;2314;48.272;11.562;2022-12-29T07:18:13;7.20;99.90
4604;DHT22;2314;48.272;11.562;2022-12-29T07:20:40;7.10;99.90
4604;DHT22;2314;48.272;11.562;2022-12-29T07:23:07;7.10;99.90
4604;DHT22;2314;48.272;11.562;2022-12-29T07:25:34;7.10;99.90
4604;DHT22;2314;48.272;11.562;2022-12-29T07:28:01;7.20;99.90
4604;DHT22;2314;48.272;11.562;2022-12-29T07:30:28;7.20;99.90
4604;DHT22;2314;48.272;11.562;2022-12-29T07:32:57;7.10;99.90
4604;DHT22;2314;48.272;11.562;2022-12-29T07:35:24;7.10;99.90
4604;DHT22;2314;48.272;11.562;2022-12-29T07:37:51;7.10;99.90
4604;DHT22;2314;48.272;11.562;2022-12-29T07:40:18;7.50;99.90
4604;DHT22;2314;48.272;11.562;2022-12-29T07:42:44;7.70;99.90
4604;DHT22;2314;48.272;11.562;2022-12-29T07:45:11;7.70;99.90
4604;DHT22;2314;48.272;11.562;2022-12-29T07:47:38;7.50;99.90
4604;DHT22;2314;48.272;11.562;2022-12-29T07:50:07;7.30;99.90
4604;DHT22;2314;48.272;11.562;2022-12-29T07:52:34;7.30;99.90
4604;DHT22;2314;48.272;11.562;2022-12-29T07:55:01;7.20;99.90
4604;DHT22;2314;48.272;11.562;2022-12-29T07:57:28;7.10;99.90
4604;DHT22;2314;48.272;11.562;2022-12-29T07:59:55;7.10;99.90
4604;DHT22;2314;48.272;11.562;2022-12-29T08:02:22;7.30;99.90
4604;DHT22;2314;48.272;11.562;2022-12-29T08:04:51;7.60;99.90
4604;DHT22;2314;48.272;11.562;2022-12-29T08:07:19;7.80;99.90
4604;DHT22;2314;48.272;11.562;2022-12-29T08:09:46;8.00;99.90
4604;DHT22;2314;48.272;11.562;2022-12-29T08:12:13;8.10;99.90
4604;DHT22;2314;48.272;11.562;2022-12-29T08:14:40;8.30;99.90
4604;DHT22;2314;48.272;11.562;2022-12-29T08:17:07;8.40;99.90
4604;DHT22;2314;48.272;11.562;2022-12-29T08:19:35;8.50;99.90
4604;DHT22;2314;48.272;11.562;2022-12-29T08:22:03;8.50;99.90
4604;DHT22;2314;48.272;11.562;2022-12-29T08:24:31;8.40;99.90
4604;DHT22;2314;48.272;11.562;2022-12-29T08:26:58;8.50;99.90
4604;DHT22;2314;48.272;11.562;2022-12-29T08:29:25;8.50;99.90
4604;DHT22;2314;48.272;11.562;2022-12-29T08:31:52;8.60;99.90
4604;DHT22;2314;48.272;11.562;2022-12-29T08:34:19;8.60;99.90
4604;DHT22;2314;48.272;11.562;2022-12-29T08:36:46;8.60;99.90
4604;DHT22;2314;48.272;11.562;2022-12-29T08:39:13;8.60;99.90
4604;DHT22;2314;48.272;11.562;2022-12-29T08:41:41;8.60;99.90
4604;DHT22;2314;48.272;11.562;2022-12-29T08:44:08;8.60;99.90
4604;DHT22;2314;48.272;11.562;2022-12-29T08:46:36;8.50;99.90
4604;DHT22;2314;48.272;11.562;2022-12-29T08:49:03;8.50;99.90
4604;DHT22;2314;48.272;11.562;2022-12-29T08:51:30;8.50;99.90
4604;DHT22;2314;48.272;11.562;2022-12-29T08:53:57;8.50;99.90
4604;DHT22;2314;48.272;11.562;2022-12-29T08:56:25;8.50;99.90
4604;DHT22;2314;48.272;11.562;2022-12-29T08:58:53;8.50;99.90
4604;DHT22;2314;48.272;11.562;2022-12-29T09:01:21;8.60;99.90
4604;DHT22;2314;48.272;11.562;2022-12-29T09:03:48;8.70;99.90
4604;DHT22;2314;48.272;11.562;2022-12-29T09:06:17;8.80;99.90
4604;DHT22;2314;48.272;11.562;2022-12-29T09:08:44;8.90;99.90
4604;DHT22;2314;48.272;11.562;2022-12-29T09:11:14;9.00;99.90
4604;DHT22;2314;48.272;11.562;2022-12-29T09:13:42;9.20;99.90
4604;DHT22;2314;48.272;11.562;2022-12-29T09:16:10;9.40;99.90
4604;DHT22;2314;48.272;11.562;2022-12-29T09:18:38;9.50;99.90
4604;DHT22;2314;48.272;11.562;2022-12-29T09:21:07;9.70;99.90
4604;DHT22;2314;48.272;11.562;2022-12-29T09:23:35;10.00;99.20
4604;DHT22;2314;48.272;11.562;2022-12-29T09:26:02;10.20;99.90
4604;DHT22;2314;48.272;11.562;2022-12-29T09:28:29;10.40;98.70
4604;DHT22;2314;48.272;11.562;2022-12-29T09:30:57;10.60;99.20
4604;DHT22;2314;48.272;11.562;2022-12-29T09:33:26;10.80;99.10
4604;DHT22;2314;48.272;11.562;2022-12-29T09:35:56;11.10;99.90
4604;DHT22;2314;48.272;11.562;2022-12-29T09:38:25;11.40;97.40
4604;DHT22;2314;48.272;11.562;2022-12-29T09:40:54;11.70;97.50
4604;DHT22;2314;48.272;11.562;2022-12-29T09:43:55;11.80;97.30
4604;DHT22;2314;48.272;11.562;2022-12-29T09:46:28;11.80;98.30
4604;DHT22;2314;48.272;11.562;2022-12-29T09:49:07;11.90;98.20
4604;DHT22;2314;48.272;11.562;2022-12-29T09:51:39;11.80;97.50
4604;DHT22;2314;48.272;11.562;2022-12-29T09:54:23;11.80;98.00
4604;DHT22;2314;48.272;11.562;2022-12-29T09:56:55;11.70;96.90
4604;DHT22;2314;48.272;11.562;2022-12-29T09:59:26;11.60;96.40
4604;DHT22;2314;48.272;11.562;2022-12-29T10:02:04;11.50;97.20
4604;DHT22;2314;48.272;11.562;2022-12-29T10:04:42;11.50;95.90
4604;DHT22;2314;48.272;11.562;2022-12-29T10:07:14;11.50;94.80
4604;DHT22;2314;48.272;11.562;2022-12-29T10:09:53;11.50;95.30
4604;DHT22;2314;48.272;11.562;2022-12-29T10:12:32;11.50;95.30
4604;DHT22;2314;48.272;11.562;2022-12-29T10:15:10;11.60;93.50
4604;DHT22;2314;48.272;11.562;2022-12-29T10:17:46;11.60;94.90
4604;DHT22;2314;48.272;11.562;2022-12-29T10:20:27;11.60;95.30
4604;DHT22;2314;48.272;11.562;2022-12-29T10:23:10;11.60;95.00
4604;DHT22;2314;48.272;11.562;2022-12-29T10:25:47;11.60;93.20
4604;DHT22;2314;48.272;11.562;2022-12-29T10:28:19;11.50;95.50
4604;DHT22;2314;48.272;11.562;2022-12-29T10:30:48;11.40;93.30
4604;DHT22;2314;48.272;11.562;2022-12-29T10:33:19;11.40;94.40
4604;DHT22;2314;48.272;11.562;2022-12-29T10:35:51;11.30;92.00
4604;DHT22;2314;48.272;11.562;2022-12-29T10:38:24;11.30;91.10
4604;DHT22;2314;48.272;11.562;2022-12-29T10:40:57;11.40;91.10
4604;DHT22;2314;48.272;11.562;2022-12-29T10:43:28;11.40;90.60
4604;DHT22;2314;48.272;11.562;2022-12-29T10:45:58;11.50;91.50
4604;DHT22;2314;48.272;11.562;2022-12-29T10:48:31;11.50;91.20
4604;DHT22;2314;48.272;11.562;2022-12-29T10:51:02;11.60;90.10
4604;DHT22;2314;48.272;11.562;2022-12-29T10:53:37;11.70;88.30
4604;DHT22;2314;48.272;11.562;2022-12-29T10:56:14;11.70;88.90
4604;DHT22;2314;48.272;11.562;2022-12-29T10:58:45;11.70;88.90
4604;DHT22;2314;48.272;11.562;2022-12-29T11:01:13;11.70;88.70
4604;DHT22;2314;48.272;11.562;2022-12-29T11:03:58;11.70;85.80
4604;DHT22;2314;48.272;11.562;2022-12-29T11:06:28;11.70;89.60
4604;DHT22;2314;48.272;11.562;2022-12-29T11:08:57;11.70;88.80
4604;DHT22;2314;48.272;11.562;2022-12-29T11:11:28;11.80;88.40
4604;DHT22;2314;48.272;11.562;2022-12-29T11:14:07;11.90;88.90
4604;DHT22;2314;48.272;11.562;2022-12-29T11:16:38;12.00;88.50
4604;DHT22;2314;48.272;11.562;2022-12-29T11:19:20;12.20;90.70
4604;DHT22;2314;48.272;11.562;2022-12-29T11:21:51;12.30;89.20
4604;DHT22;2314;48.272;11.562;2022-12-29T11:24:21;12.40;85.70
4604;DHT22;2314;48.272;11.562;2022-12-29T11:26:50;12.40;84.50
4604;DHT22;2314;48.272;11.562;2022-12-29T11:29:27;12.40;89.70
4604;DHT22;2314;48.272;11.562;2022-12-29T11:31:56;12.30;89.10
4604;DHT22;2314;48.272;11.562;2022-12-29T11:34:26;12.20;89.30
4604;DHT22;2314;48.272;11.562;2022-12-29T11:37:02;12.10;89.30
4604;DHT22;2314;48.272;11.562;2022-12-29T11:39:36;12.10;86.40
4604;DHT22;2314;48.272;11.562;2022-12-29T11:42:10;12.10;88.80
4604;DHT22;2314;48.272;11.562;2022-12-29T11:44:43;12.10;90.60
4604;DHT22;2314;48.272;11.562;2022-12-29T11:47:20;12.30;90.10
4604;DHT22;2314;48.272;11.562;2022-12-29T11:49:55;12.30;91.20
4604;DHT22;2314;48.272;11.562;2022-12-29T11:52:27;12.30;90.00
4604;DHT22;2314;48.272;11.562;2022-12-29T11:54:58;12.40;90.60
4604;DHT22;2314;48.272;11.562;2022-12-29T11:57:26;12.60;90.90
4604;DHT22;2314;48.272;11.562;2022-12-29T11:59:55;12.80;90.60
4604;DHT22;2314;48.272;11.562;2022-12-29T12:02:36;13.00;90.20
4604;DHT22;2314;48.272;11.562;2022-12-29T12:05:29;13.20;87.60
4604;DHT22;2314;48.272;11.562;2022-12-29T12:08:08;13.20;90.90
4604;DHT22;2314;48.272;11.562;2022-12-29T12:10:41;13.30;90.60
4604;DHT22;2314;48.272;11.562;2022-12-29T12:13:18;13.30;90.10
4604;DHT22;2314;48.272;11.562;2022-12-29T12:15:52;13.30;91.50
4604;DHT22;2314;48.272;11.562;2022-12-29T12:18:32;13.30;91.50
4604;DHT22;2314;48.272;11.562;2022-12-29T12:21:13;13.30;91.20
4604;DHT22;2314;48.272;11.562;2022-12-29T12:24:00;13.30;93.20
4604;DHT22;2314;48.272;11.562;2022-12-29T12:26:49;13.20;91.30
4604;DHT22;2314;48.272;11.562;2022-12-29T12:29:25;13.00;92.10
4604;DHT22;2314;48.272;11.562;2022-12-29T12:32:01;12.80;94.20
4604;DHT22;2314;48.272;11.562;2022-12-29T12:34:35;12.80;92.70
4604;DHT22;2314;48.272;11.562;2022-12-29T12:37:19;12.90;92.20
4604;DHT22;2314;48.272;11.562;2022-12-29T12:43:35;13.00;92.40
4604;DHT22;2314;48.272;11.562;2022-12-29T12:49:41;13.00;92.20
4604;DHT22;2314;48.272;11.562;2022-12-29T12:52:31;12.80;93.40
4604;DHT22;2314;48.272;11.562;2022-12-29T12:55:22;12.70;95.90
4604;DHT22;2314;48.272;11.562;2022-12-29T12:58:03;12.70;94.60
4604;DHT22;2314;48.272;11.562;2022-12-29T13:00:45;12.60;96.00
4604;DHT22;2314;48.272;11.562;2022-12-29T13:03:21;12.50;96.50
4604;DHT22;2314;48.272;11.562;2022-12-29T13:06:09;12.50;96.30
4604;DHT22;2314;48.272;11.562;2022-12-29T13:09:00;12.50;96.40
4604;DHT22;2314;48.272;11.562;2022-12-29T13:12:01;12.60;97.00
4604;DHT22;2314;48.272;11.562;2022-12-29T13:14:42;12.60;97.40
4604;DHT22;2314;48.272;11.562;2022-12-29T13:17:21;12.50;97.40
4604;DHT22;2314;48.272;11.562;2022-12-29T13:19:55;12.50;99.00
4604;DHT22;2314;48.272;11.562;2022-12-29T13:22:30;12.50;99.10
4604;DHT22;2314;48.272;11.562;2022-12-29T13:25:25;12.50;99.80
4604;DHT22;2314;48.272;11.562;2022-12-29T13:28:04;12.40;99.90
4604;DHT22;2314;48.272;11.562;2022-12-29T13:30:43;12.40;99.90
4604;DHT22;2314;48.272;11.562;2022-12-29T13:33:17;12.40;99.90
4604;DHT22;2314;48.272;11.562;2022-12-29T13:35:56;12.40;99.90
4604;DHT22;2314;48.272;11.562;2022-12-29T13:38:30;12.30;99.90
4604;DHT22;2314;48.272;11.562;2022-12-29T13:41:03;12.30;99.90
4604;DHT22;2314;48.272;11.562;2022-12-29T13:43:35;12.30;99.90
4604;DHT22;2314;48.272;11.562;2022-12-29T13:46:10;12.20;99.90
4604;DHT22;2314;48.272;11.562;2022-12-29T13:48:43;12.20;99.90
4604;DHT22;2314;48.272;11.562;2022-12-29T13:51:15;12.20;99.90
4604;DHT22;2314;48.272;11.562;2022-12-29T13:53:55;12.10;99.90
4604;DHT22;2314;48.272;11.562;2022-12-29T13:56:34;12.10;99.90
4604;DHT22;2314;48.272;11.562;2022-12-29T13:59:12;12.00;99.90
4604;DHT22;2314;48.272;11.562;2022-12-29T14:01:49;12.00;99.90
4604;DHT22;2314;48.272;11.562;2022-12-29T14:04:24;12.00;99.90
4604;DHT22;2314;48.272;11.562;2022-12-29T14:07:01;11.90;99.90
4604;DHT22;2314;48.272;11.562;2022-12-29T14:09:42;11.80;99.90
4604;DHT22;2314;48.272;11.562;2022-12-29T14:12:29;11.70;99.90
4604;DHT22;2314;48.272;11.562;2022-12-29T14:15:15;11.70;99.90
4604;DHT22;2314;48.272;11.562;2022-12-29T14:18:03;11.70;99.90
4604;DHT22;2314;48.272;11.562;2022-12-29T14:20:32;11.60;99.90
4604;DHT22;2314;48.272;11.562;2022-12-29T14:23:14;11.50;99.90
4604;DHT22;2314;48.272;11.562;2022-12-29T14:25:54;11.50;99.90
4604;DHT22;2314;48.272;11.562;2022-12-29T14:28:50;11.40;99.90
4604;DHT22;2314;48.272;11.562;2022-12-29T14:31:35;11.40;99.90
4604;DHT22;2314;48.272;11.562;2022-12-29T14:34:29;11.30;99.90
4604;DHT22;2314;48.272;11.562;2022-12-29T14:36:58;11.20;99.90
4604;DHT22;2314;48.272;11.562;2022-12-29T14:39:36;11.10;99.90
4604;DHT22;2314;48.272;11.562;2022-12-29T14:42:12;11.10;99.90
4604;DHT22;2314;48.272;11.562;2022-12-29T14:44:46;11.10;99.90
4604;DHT22;2314;48.272;11.562;2022-12-29T14:47:19;11.10;99.90
4604;DHT22;2314;48.272;11.562;2022-12-29T14:49:47;11.00;99.90
4604;DHT22;2314;48.272;11.562;2022-12-29T14:52:18;10.90;99.90
4604;DHT22;2314;48.272;11.562;2022-12-29T14:54:50;10.80;99.90
4604;DHT22;2314;48.272;11.562;2022-12-29T14:57:30;10.80;99.90
4604;DHT22;2314;48.272;11.562;2022-12-29T15:00:16;10.70;99.90
4604;DHT22;2314;48.272;11.562;2022-12-29T15:02:50;10.70;99.90
4604;DHT22;2314;48.272;11.562;2022-12-29T15:05:30;10.60;99.90
4604;DHT22;2314;48.272;11.562;2022-12-29T15:08:00;10.50;99.90
4604;DHT22;2314;48.272;11.562;2022-12-29T15:10:36;10.50;99.90
4604;DHT22;2314;48.272;11.562;2022-12-29T15:13:12;10.50;99.90
4604;DHT22;2314;48.272;11.562;2022-12-29T15:15:41;10.50;99.90
4604;DHT22;2314;48.272;11.562;2022-12-29T15:18:23;10.50;99.90
4604;DHT22;2314;48.272;11.562;2022-12-29T15:20:53;10.50;99.90
4604;DHT22;2314;48.272;11.562;2022-12-29T15:23:22;10.50;99.90
4604;DHT22;2314;48.272;11.562;2022-12-29T15:25:52;10.40;99.90
4604;DHT22;2314;48.272;11.562;2022-12-29T15:28:21;10.30;99.90
4604;DHT22;2314;48.272;11.562;2022-12-29T15:30:53;10.20;99.90
4604;DHT22;2314;48.272;11.562;2022-12-29T15:33:23;10.20;99.90
4604;DHT22;2314;48.272;11.562;2022-12-29T15:35:54;10.10;99.90
4604;DHT22;2314;48.272;11.562;2022-12-29T15:38:23;10.10;99.90
4604;DHT22;2314;48.272;11.562;2022-12-29T15:40:53;10.10;99.90
4604;DHT22;2314;48.272;11.562;2022-12-29T15:43:33;10.00;99.90
4604;DHT22;2314;48.272;11.562;2022-12-29T15:46:07;10.00;99.90
4604;DHT22;2314;48.272;11.562;2022-12-29T15:48:35;9.90;99.90
4604;DHT22;2314;48.272;11.562;2022-12-29T15:51:02;9.90;99.90
4604;DHT22;2314;48.272;11.562;2022-12-29T15:53:31;9.90;99.90
4604;DHT22;2314;48.272;11.562;2022-12-29T15:56:00;9.90;99.90
4604;DHT22;2314;48.272;11.562;2022-12-29T15:58:30;9.80;99.90
4604;DHT22;2314;48.272;11.562;2022-12-29T16:00:58;9.80;99.90
4604;DHT22;2314;48.272;11.562;2022-12-29T16:03:29;9.80;99.90
4604;DHT22;2314;48.272;11.562;2022-12-29T16:06:09;9.70;99.90
4604;DHT22;2314;48.272;11.562;2022-12-29T16:08:56;9.60;99.90
4604;DHT22;2314;48.272;11.562;2022-12-29T16:11:27;9.60;99.90
4604;DHT22;2314;48.272;11.562;2022-12-29T16:13:58;9.50;99.90
4604;DHT22;2314;48.272;11.562;2022-12-29T16:16:27;9.50;99.90
4604;DHT22;2314;48.272;11.562;2022-12-29T16:18:56;9.50;99.90
4604;DHT22;2314;48.272;11.562;2022-12-29T16:21:27;9.50;99.90
4604;DHT22;2314;48.272;11.562;2022-12-29T16:24:00;9.40;99.90
4604;DHT22;2314;48.272;11.562;2022-12-29T16:26:29;9.40;99.90
4604;DHT22;2314;48.272;11.562;2022-12-29T16:28:58;9.50;99.90
4604;DHT22;2314;48.272;11.562;2022-12-29T16:31:33;9.50;99.90
4604;DHT22;2314;48.272;11.562;2022-12-29T16:34:11;9.50;99.90
4604;DHT22;2314;48.272;11.562;2022-12-29T16:36:53;9.50;99.90
4604;DHT22;2314;48.272;11.562;2022-12-29T16:39:35;9.50;99.90